createdAt,value
2019-06-10T00:00:37.092Z,2.53
2019-06-10T00:03:07.266Z,2.63
2019-06-10T00:05:37.056Z,1.87
2019-06-10T00:08:07.123Z,5.17
2019-06-10T00:10:36.932Z,3.03
2019-06-10T00:13:07.350Z,2.20
2019-06-10T00:15:40.752Z,3.30
2019-06-10T00:18:33.325Z,2.53
2019-06-10T00:20:41.441Z,1.90
2019-06-10T00:23:12.677Z,1.83
2019-06-10T00:25:42.501Z,2.90
2019-06-10T00:28:12.403Z,2.37
2019-06-10T00:30:42.322Z,2.17
2019-06-10T00:33:12.735Z,2.43
2019-06-10T00:35:42.531Z,2.30
2019-06-10T00:38:14.321Z,2.63
2019-06-10T00:40:43.718Z,3.27
2019-06-10T00:43:13.754Z,2.53
2019-06-10T00:45:44.605Z,2.50
2019-06-10T00:48:25.169Z,2.77
2019-06-10T00:50:45.735Z,2.97
2019-06-10T00:53:15.451Z,2.23
2019-06-10T00:55:45.191Z,2.53
2019-06-10T00:58:14.902Z,2.57
2019-06-10T01:00:44.723Z,2.70
2019-06-10T01:03:15.298Z,3.37
2019-06-10T01:05:46.253Z,2.77
2019-06-10T01:08:15.958Z,2.07
2019-06-10T01:10:45.677Z,4.27
2019-06-10T01:13:15.587Z,3.57
2019-06-10T01:15:45.369Z,2.33
2019-06-10T01:18:34.156Z,3.17
2019-06-10T01:20:47.090Z,4.70
2019-06-10T01:23:17.601Z,3.93
2019-06-10T01:25:47.504Z,3.03
2019-06-10T01:28:18.514Z,3.00
2019-06-10T01:30:48.392Z,3.47
2019-06-10T01:33:18.098Z,3.07
2019-06-10T01:35:47.846Z,3.67
2019-06-10T01:38:18.362Z,2.90
2019-06-10T01:40:50.959Z,3.47
2019-06-10T01:43:21.548Z,4.60
2019-06-10T01:45:51.465Z,3.53
2019-06-10T01:48:21.288Z,3.70
2019-06-10T01:50:51.398Z,3.33
2019-06-10T01:53:22.253Z,3.00
2019-06-10T01:55:52.143Z,5.30
2019-06-10T01:58:23.639Z,3.83
2019-06-10T02:01:13.503Z,2.93
2019-06-10T02:03:41.532Z,4.73
2019-06-10T02:06:14.407Z,4.20
2019-06-10T02:08:42.963Z,2.50
2019-06-10T02:11:15.714Z,3.70
2019-06-10T02:13:44.097Z,3.57
2019-06-10T02:16:15.786Z,2.70
2019-06-10T02:18:59.799Z,2.23
2019-06-10T02:21:18.024Z,6.30
2019-06-10T02:23:48.275Z,4.03
2019-06-10T02:26:19.335Z,3.87
2019-06-10T02:28:51.255Z,5.83
2019-06-10T02:31:30.002Z,4.83
2019-06-10T02:33:52.741Z,3.53
2019-06-10T02:36:30.497Z,3.13
2019-06-10T02:38:54.224Z,6.03
2019-06-10T02:41:31.667Z,6.60
2019-06-10T02:43:55.347Z,4.37
2019-06-10T02:46:31.177Z,5.37
2019-06-10T02:49:16.410Z,4.23
2019-06-10T02:51:31.560Z,4.37
2019-06-10T02:54:04.450Z,4.37
2019-06-10T02:56:36.598Z,3.60
2019-06-10T02:59:03.879Z,4.43
2019-06-10T03:01:37.883Z,4.37
2019-06-10T03:04:05.162Z,3.27
2019-06-10T03:07:07.754Z,3.57
2019-06-10T03:09:37.454Z,8.00
2019-06-10T03:12:07.299Z,4.20
2019-06-10T03:14:36.984Z,3.83
2019-06-10T03:17:12.462Z,7.40
2019-06-10T03:19:50.150Z,6.43
2019-06-10T03:22:13.894Z,2.50
2019-06-10T03:24:43.586Z,3.17
2019-06-10T03:27:13.310Z,4.93
2019-06-10T03:29:43.000Z,4.30
2019-06-10T03:32:16.577Z,5.17
2019-06-10T03:34:47.195Z,4.23
2019-06-10T03:37:16.328Z,4.63
2019-06-10T03:39:46.139Z,5.00
2019-06-10T03:42:16.984Z,5.10
2019-06-10T03:44:46.706Z,4.03
2019-06-10T03:47:17.089Z,3.87
2019-06-10T03:49:52.577Z,4.00
2019-06-10T03:52:19.327Z,5.67
2019-06-10T03:54:49.125Z,5.23
2019-06-10T03:57:19.249Z,6.40
2019-06-10T03:59:49.075Z,4.57
2019-06-10T04:02:19.416Z,4.07
2019-06-10T04:04:49.353Z,4.67
2019-06-10T04:07:20.899Z,4.33
2019-06-10T04:09:52.509Z,4.37
2019-06-10T04:12:24.269Z,3.27
2019-06-10T04:14:53.417Z,3.10
2019-06-10T04:17:25.095Z,4.30
2019-06-10T04:20:07.921Z,4.00
2019-06-10T04:22:26.866Z,3.33
2019-06-10T04:24:57.485Z,5.30
2019-06-10T04:27:28.397Z,6.20
2019-06-10T04:29:58.326Z,4.37
2019-06-10T04:32:29.130Z,4.40
2019-06-10T04:34:58.981Z,5.10
2019-06-10T04:37:29.552Z,3.07
2019-06-10T04:39:59.379Z,3.60
2019-06-10T04:42:29.157Z,5.33
2019-06-10T04:44:58.865Z,4.07
2019-06-10T04:47:29.654Z,4.50
2019-06-10T04:49:59.511Z,4.77
2019-06-10T04:52:29.781Z,3.97
2019-06-10T04:55:02.523Z,3.70
2019-06-10T04:57:32.756Z,4.50
2019-06-10T05:00:10.986Z,7.13
2019-06-10T05:02:34.424Z,3.17
2019-06-10T05:05:04.838Z,3.60
2019-06-10T05:07:37.130Z,3.33
2019-06-10T05:10:06.540Z,5.90
2019-06-10T05:12:36.262Z,5.73
2019-06-10T05:15:07.407Z,4.80
2019-06-10T05:17:37.105Z,3.13
2019-06-10T05:20:07.315Z,4.10
2019-06-10T05:22:37.101Z,4.47
2019-06-10T05:25:07.109Z,5.37
2019-06-10T05:27:36.818Z,4.43
2019-06-10T05:30:07.848Z,6.00
2019-06-10T05:32:37.625Z,3.63
2019-06-10T05:35:07.774Z,5.90
2019-06-10T05:37:37.516Z,3.63
2019-06-10T05:40:07.791Z,3.23
2019-06-10T05:42:37.524Z,5.17
2019-06-10T05:45:08.832Z,3.73
2019-06-10T05:47:38.536Z,6.90
2019-06-10T05:50:08.786Z,6.90
2019-06-10T05:52:38.493Z,4.77
2019-06-10T05:55:08.854Z,3.83
2019-06-10T05:57:38.596Z,5.30
2019-06-10T06:00:13.838Z,4.33
2019-06-10T06:02:40.463Z,5.70
2019-06-10T06:05:12.683Z,4.00
2019-06-10T06:07:42.457Z,4.67
2019-06-10T06:10:13.201Z,4.03
2019-06-10T06:12:42.925Z,5.50
2019-06-10T06:15:13.349Z,3.97
2019-06-10T06:17:44.060Z,3.67
2019-06-10T06:20:15.661Z,3.93
2019-06-10T06:22:45.370Z,5.80
2019-06-10T06:25:15.823Z,3.50
2019-06-10T06:27:45.621Z,5.30
2019-06-10T06:30:18.686Z,4.53
2019-06-10T06:32:47.126Z,3.93
2019-06-10T06:35:17.025Z,5.37
2019-06-10T06:37:46.746Z,4.43
2019-06-10T06:40:17.017Z,3.70
2019-06-10T06:42:46.737Z,3.27
2019-06-10T06:53:15.354Z,6.27
2019-06-10T06:55:16.735Z,5.20
2019-06-10T06:57:46.567Z,4.97
2019-06-10T07:00:38.244Z,5.43
2019-06-10T07:02:48.548Z,4.30
2019-06-10T07:05:18.433Z,5.37
2019-06-10T07:07:48.725Z,4.47
2019-06-10T07:10:18.411Z,4.77
2019-06-10T07:12:52.225Z,3.40
2019-06-10T07:15:25.429Z,3.37
2019-06-10T07:17:55.205Z,4.72
2019-06-10T07:20:24.937Z,4.95
2019-06-10T07:22:54.793Z,4.20
2019-06-10T07:25:24.502Z,4.33
2019-06-10T07:27:55.166Z,4.67
2019-06-10T07:30:24.868Z,3.55
2019-06-10T07:32:54.599Z,5.42
2019-06-10T07:35:24.363Z,4.70
2019-06-10T07:37:54.146Z,4.45
2019-06-10T07:40:23.988Z,6.57
2019-06-10T07:42:53.740Z,4.17
2019-06-10T07:45:23.574Z,4.77
2019-06-10T07:47:53.314Z,4.73
2019-06-10T07:50:23.266Z,3.70
2019-06-10T07:52:53.050Z,5.13
2019-06-10T07:55:22.759Z,4.30
2019-06-10T07:57:53.084Z,4.97
2019-06-10T08:00:24.269Z,4.30
2019-06-10T08:02:53.993Z,5.83
2019-06-10T08:05:23.780Z,5.80
2019-06-10T08:07:54.761Z,4.07
2019-06-10T08:10:24.818Z,8.07
2019-06-10T08:12:55.625Z,7.03
2019-06-10T08:15:25.419Z,6.12
2019-06-10T08:17:55.561Z,5.40
2019-06-10T08:20:45.038Z,6.50
2019-06-10T08:23:15.144Z,4.05
2019-06-10T08:25:52.939Z,4.40
2019-06-10T08:28:17.368Z,4.67
2019-06-10T08:30:48.258Z,4.28
2019-06-10T08:33:18.158Z,5.37
2019-06-10T08:35:56.092Z,4.33
2019-06-10T08:38:19.520Z,4.67
2019-06-10T08:40:49.264Z,4.03
2019-06-10T08:43:19.068Z,6.58
2019-06-10T08:45:48.921Z,4.85
2019-06-10T08:48:18.693Z,5.28
2019-06-10T08:50:50.072Z,6.35
2019-06-10T08:53:22.510Z,4.17
2019-06-10T08:55:53.637Z,5.22
2019-06-10T08:58:23.312Z,4.20
2019-06-10T09:00:53.810Z,3.90
2019-06-10T09:03:23.932Z,6.45
2019-06-10T09:05:56.225Z,7.15
2019-06-10T09:08:25.770Z,5.20
2019-06-10T09:10:55.765Z,5.65
2019-06-10T09:13:25.432Z,6.12
2019-06-10T09:16:11.751Z,5.03
2019-06-10T09:18:27.699Z,4.77
2019-06-10T09:20:57.493Z,7.23
2019-06-10T09:23:27.227Z,5.60
2019-06-10T09:25:57.833Z,7.12
2019-06-10T09:28:28.645Z,5.42
2019-06-10T09:30:59.636Z,6.43
2019-06-10T09:33:29.707Z,5.73
2019-06-10T09:35:59.418Z,5.03
2019-06-10T09:38:29.185Z,6.33
2019-06-10T09:41:03.040Z,4.22
2019-06-10T09:43:32.983Z,5.00
2019-06-10T09:46:03.503Z,5.67
2019-06-10T09:48:33.728Z,5.25
2019-06-10T09:51:03.916Z,6.25
2019-06-10T09:53:42.241Z,5.85
2019-06-10T09:56:05.240Z,6.47
2019-06-10T09:58:34.943Z,5.47
2019-06-10T10:01:04.928Z,6.97
2019-06-10T10:03:34.615Z,6.55
2019-06-10T10:06:14.625Z,5.50
2019-06-10T10:08:36.771Z,7.30
2019-06-10T10:11:06.639Z,6.35
2019-06-10T10:13:36.520Z,6.33
2019-06-10T10:16:06.513Z,5.83
2019-06-10T10:18:36.297Z,6.55
2019-06-10T10:21:06.072Z,7.92
2019-06-10T10:23:50.068Z,5.12
2019-06-10T10:26:07.210Z,6.57
2019-06-10T10:28:36.918Z,7.78
2019-06-10T10:31:06.678Z,5.05
2019-06-10T10:33:36.374Z,5.67
2019-06-10T10:36:06.102Z,7.37
2019-06-10T10:38:35.780Z,7.90
2019-06-10T10:41:05.952Z,7.15
2019-06-10T10:43:37.990Z,7.87
2019-06-10T10:46:13.862Z,10.88
2019-06-10T10:48:42.963Z,8.15
2019-06-10T10:51:13.427Z,5.92
2019-06-10T10:53:48.235Z,6.87
2019-06-10T10:56:14.735Z,8.85
2019-06-10T10:58:46.998Z,9.55
2019-06-10T11:01:16.422Z,4.90
2019-06-10T11:03:48.207Z,5.35
2019-06-10T11:06:18.484Z,5.28
2019-06-10T11:08:48.723Z,5.37
2019-06-10T11:11:22.837Z,4.60
2019-06-10T11:13:56.391Z,5.95
2019-06-10T11:16:23.367Z,4.85
2019-06-10T11:18:55.995Z,4.30
2019-06-10T11:21:24.792Z,5.55
2019-06-10T11:24:00.797Z,6.30
2019-06-10T11:26:27.019Z,4.70
2019-06-10T11:28:57.927Z,6.20
2019-06-10T11:31:27.786Z,5.50
2019-06-10T11:33:59.107Z,5.45
2019-06-10T11:36:29.157Z,7.05
2019-06-10T11:38:59.270Z,4.70
2019-06-10T11:41:29.125Z,4.08
2019-06-10T11:43:59.379Z,5.08
2019-06-10T11:46:29.176Z,4.17
2019-06-10T11:48:59.149Z,5.75
2019-06-10T11:51:29.136Z,5.20
2019-06-10T11:53:59.036Z,6.22
2019-06-10T11:56:28.999Z,5.75
2019-06-10T11:59:00.463Z,5.97
2019-06-10T12:01:30.957Z,5.28
2019-06-10T12:04:03.972Z,4.60
2019-06-10T12:06:33.950Z,5.75
2019-06-10T12:09:07.257Z,4.17
2019-06-10T12:11:36.965Z,4.42
2019-06-10T12:14:07.028Z,4.62
2019-06-10T12:19:08.265Z,7.05
2019-06-10T12:21:38.232Z,5.53
2019-06-10T12:24:08.225Z,4.85
2019-06-10T12:26:38.097Z,6.05
2019-06-10T12:29:07.881Z,4.03
2019-06-10T12:31:37.753Z,4.90
2019-06-10T12:34:07.566Z,4.90
2019-06-10T12:36:38.289Z,4.62
2019-06-10T12:39:10.783Z,5.00
2019-06-10T12:41:42.893Z,6.15
2019-06-10T12:44:13.251Z,4.65
2019-06-10T12:46:43.453Z,6.17
2019-06-10T12:49:18.050Z,4.15
2019-06-10T12:51:45.867Z,6.62
2019-06-10T12:54:15.570Z,3.92
2019-06-10T12:56:45.750Z,5.17
2019-06-10T12:59:15.587Z,7.10
2019-06-10T13:01:46.501Z,4.72
2019-06-10T13:04:16.689Z,4.10
2019-06-10T13:06:48.317Z,4.85
2019-06-10T13:09:19.336Z,4.47
2019-06-10T13:11:49.452Z,5.65
2019-06-10T13:14:19.214Z,4.87
2019-06-10T13:16:48.977Z,4.45
2019-06-10T13:19:18.751Z,5.28
2019-06-10T13:21:48.612Z,5.40
2019-06-10T13:24:18.572Z,5.87
2019-06-10T13:26:48.376Z,6.70
2019-06-10T13:29:18.148Z,5.35
2019-06-10T13:31:48.016Z,4.97
2019-06-10T13:34:17.697Z,6.30
2019-06-10T13:36:47.608Z,7.37
2019-06-10T13:39:17.553Z,5.47
2019-06-10T13:41:47.312Z,5.25
2019-06-10T13:44:18.184Z,5.37
2019-06-10T13:46:48.176Z,5.37
2019-06-10T13:49:17.970Z,5.28
2019-06-10T13:51:47.784Z,4.87
2019-06-10T13:54:17.512Z,4.35
2019-06-10T13:56:47.781Z,5.20
2019-06-10T13:59:17.631Z,3.98
2019-06-10T14:01:47.342Z,5.42
2019-06-10T14:04:21.872Z,5.65
2019-06-10T14:06:50.521Z,4.90
2019-06-10T14:09:23.151Z,5.67
2019-06-10T14:11:52.320Z,4.22
2019-06-10T14:14:23.036Z,6.25
2019-06-10T14:16:54.096Z,3.83
2019-06-10T14:19:24.357Z,4.90
2019-06-10T14:21:55.408Z,5.00
2019-06-10T14:24:25.113Z,4.75
2019-06-10T14:26:55.007Z,4.30
2019-06-10T14:29:25.156Z,4.70
2019-06-10T14:31:56.038Z,4.05
2019-06-10T14:34:25.942Z,3.75
2019-06-10T14:36:55.664Z,3.17
2019-06-10T14:39:25.577Z,4.15
2019-06-10T14:41:55.349Z,5.05
2019-06-10T14:44:25.364Z,3.45
2019-06-10T14:46:55.245Z,3.47
2019-06-10T14:49:25.210Z,4.33
2019-06-10T14:51:54.981Z,3.30
2019-06-10T14:54:24.839Z,3.30
2019-06-10T14:56:57.396Z,3.77
2019-06-10T14:59:26.526Z,4.50
2019-06-10T15:01:56.254Z,3.90
2019-06-10T15:04:26.133Z,3.35
2019-06-10T15:06:55.967Z,4.00
2019-06-10T15:09:25.875Z,4.47
2019-06-10T15:11:55.595Z,5.03
2019-06-10T15:14:25.675Z,5.10
2019-06-10T15:16:55.886Z,4.08
2019-06-10T15:19:29.085Z,5.83
2019-06-10T15:21:57.838Z,5.85
2019-06-10T15:24:27.702Z,3.52
2019-06-10T15:27:12.159Z,3.40
2019-06-10T15:29:29.393Z,4.97
2019-06-10T15:32:13.587Z,3.08
2019-06-10T15:34:32.564Z,2.83
2019-06-10T15:37:02.981Z,3.50
2019-06-10T15:39:33.606Z,3.58
2019-06-10T15:42:03.520Z,3.80
2019-06-10T15:44:48.458Z,3.52
2019-06-10T15:47:05.313Z,3.92
2019-06-10T15:49:36.692Z,3.10
2019-06-10T15:52:06.880Z,4.00
2019-06-10T15:54:36.593Z,3.87
2019-06-10T15:57:19.293Z,2.60
2019-06-10T15:59:39.248Z,3.27
2019-06-10T16:02:09.206Z,3.10
2019-06-10T16:04:39.316Z,2.70
2019-06-10T16:07:09.646Z,5.17
2019-06-10T16:09:42.323Z,3.72
2019-06-10T16:12:14.360Z,3.50
2019-06-10T16:14:42.675Z,4.85
2019-06-10T16:17:13.913Z,2.65
2019-06-10T16:19:44.029Z,3.98
2019-06-10T16:22:14.498Z,3.85
2019-06-10T16:24:45.752Z,4.33
2019-06-10T16:27:15.893Z,3.87
2019-06-10T16:29:45.704Z,3.72
2019-06-10T16:32:16.308Z,3.52
2019-06-10T16:34:46.180Z,3.67
2019-06-10T16:37:17.070Z,2.83
2019-06-10T16:39:46.952Z,2.85
2019-06-10T16:42:17.432Z,2.80
2019-06-10T16:44:47.820Z,5.30
2019-06-10T16:47:19.111Z,3.83
2019-06-10T16:49:49.294Z,3.80
2019-06-10T16:52:19.519Z,6.20
2019-06-10T16:54:49.768Z,3.05
2019-06-10T16:57:19.857Z,4.03
2019-06-10T16:59:52.093Z,3.00
2019-06-10T17:02:23.936Z,3.42
2019-06-10T17:04:53.356Z,5.33
2019-06-10T17:07:23.085Z,4.00
2019-06-10T17:09:53.955Z,3.45
2019-06-10T17:12:25.974Z,2.47
2019-06-10T17:14:55.192Z,2.77
2019-06-10T17:17:26.578Z,3.25
2019-06-10T17:19:56.512Z,6.67
2019-06-10T17:22:28.706Z,3.65
2019-06-10T17:24:57.712Z,3.13
2019-06-10T17:27:27.945Z,2.55
2019-06-10T17:29:58.875Z,3.75
2019-06-10T17:32:28.724Z,3.70
2019-06-10T17:34:58.616Z,5.40
2019-06-10T17:37:33.759Z,3.15
2019-06-10T17:40:03.039Z,4.58
2019-06-10T17:42:38.012Z,2.70
2019-06-10T17:45:05.324Z,3.90
2019-06-10T17:47:35.179Z,5.90
2019-06-10T17:50:05.861Z,2.72
2019-06-10T17:52:38.806Z,3.17
2019-06-10T17:55:08.623Z,3.93
2019-06-10T17:57:38.647Z,3.43
2019-06-10T18:00:12.239Z,4.30
2019-06-10T18:02:42.638Z,3.37
2019-06-10T18:05:12.931Z,4.30
2019-06-10T18:07:42.990Z,3.30
2019-06-10T18:10:13.618Z,4.63
2019-06-10T18:12:43.327Z,5.17
2019-06-10T18:15:14.979Z,4.67
2019-06-10T18:17:44.841Z,3.60
2019-06-10T18:20:17.794Z,3.10
2019-06-10T18:22:47.562Z,3.97
2019-06-10T18:25:18.722Z,3.47
2019-06-10T18:27:48.590Z,5.27
2019-06-10T18:30:18.587Z,4.33
2019-06-10T18:32:48.355Z,4.63
2019-06-10T18:35:18.645Z,3.40
2019-06-10T18:37:48.401Z,4.60
2019-06-10T18:40:18.757Z,3.90
2019-06-10T18:42:48.546Z,5.00
2019-06-10T18:45:18.957Z,3.87
2019-06-10T18:47:48.689Z,4.80
2019-06-10T18:50:18.818Z,4.07
2019-06-10T18:52:50.258Z,3.60
2019-06-10T18:55:22.590Z,5.73
2019-06-10T18:57:52.989Z,6.77
2019-06-10T19:00:23.452Z,3.20
2019-06-10T19:03:08.711Z,4.37
2019-06-10T19:05:24.978Z,5.67
2019-06-10T19:07:54.825Z,4.83
2019-06-10T19:10:25.827Z,3.30
2019-06-10T19:12:55.606Z,3.23
2019-06-10T19:15:25.479Z,4.03
2019-06-10T19:17:55.411Z,4.03
2019-06-10T19:20:25.503Z,5.10
2019-06-10T19:22:55.449Z,3.40
2019-06-10T19:25:25.767Z,7.53
2019-06-10T19:27:55.638Z,9.43
2019-06-10T19:30:27.783Z,5.73
2019-06-10T19:32:57.736Z,4.37
2019-06-10T19:35:27.657Z,4.10
2019-06-10T19:37:57.495Z,5.13
2019-06-10T19:40:27.618Z,3.33
2019-06-10T19:42:57.533Z,5.37
2019-06-10T19:45:27.411Z,4.43
2019-06-10T19:47:57.394Z,4.23
2019-06-10T19:50:27.330Z,5.23
2019-06-10T19:52:57.173Z,6.60
2019-06-10T19:55:26.935Z,7.33
2019-06-10T19:57:56.666Z,5.33
2019-06-10T20:00:26.613Z,5.03
2019-06-10T20:02:56.328Z,5.77
2019-06-10T20:05:26.332Z,5.27
2019-06-10T20:07:56.181Z,9.40
2019-06-10T20:10:26.062Z,4.23
2019-06-10T20:12:56.071Z,5.37
2019-06-10T20:15:26.826Z,6.60
2019-06-10T20:17:56.619Z,4.63
2019-06-10T20:20:26.476Z,4.83
2019-06-10T20:22:57.523Z,4.50
2019-06-10T20:25:27.905Z,5.63
2019-06-10T20:27:57.797Z,5.93
2019-06-10T20:30:29.178Z,7.53
2019-06-10T20:32:59.142Z,5.13
2019-06-10T20:35:29.111Z,6.10
2019-06-10T20:37:58.911Z,5.90
2019-06-10T20:40:28.784Z,5.70
2019-06-10T20:43:00.213Z,6.57
2019-06-10T20:45:33.230Z,7.03
2019-06-10T20:48:02.899Z,8.10
2019-06-10T20:50:32.745Z,8.87
2019-06-10T20:53:11.972Z,8.33
2019-06-10T20:55:42.073Z,9.43
2019-06-10T20:58:07.338Z,6.77
2019-06-10T21:00:44.161Z,6.77
2019-06-10T21:03:09.582Z,8.53
2019-06-10T21:05:41.569Z,8.33
2019-06-10T21:08:12.285Z,7.67
2019-06-10T21:10:45.157Z,7.97
2019-06-10T21:13:14.144Z,5.33
2019-06-10T21:15:47.502Z,6.07
2019-06-10T21:18:16.105Z,9.50
2019-06-10T21:20:49.614Z,7.47
2019-06-10T21:23:18.264Z,8.63
2019-06-10T21:25:50.688Z,8.03
2019-06-10T21:28:20.080Z,8.80
2019-06-10T21:30:54.925Z,7.70
2019-06-10T21:33:23.473Z,8.23
2019-06-10T21:35:54.798Z,8.83
2019-06-10T21:38:24.843Z,6.90
2019-06-10T21:40:54.766Z,10.97
2019-06-10T21:43:24.830Z,7.60
2019-06-10T21:45:57.793Z,7.93
2019-06-10T21:48:27.189Z,9.77
2019-06-10T21:50:56.916Z,7.70
2019-06-10T21:53:26.913Z,7.60
2019-06-10T21:55:56.715Z,8.50
2019-06-10T21:58:26.519Z,8.70
2019-06-10T22:01:09.798Z,9.57
2019-06-10T22:03:28.010Z,8.00
2019-06-10T22:05:57.863Z,9.47
2019-06-10T22:08:27.623Z,9.60
2019-06-10T22:10:57.396Z,8.67
2019-06-10T22:13:27.308Z,10.70
2019-06-10T22:15:57.292Z,10.40
2019-06-10T22:18:28.027Z,10.03
2019-06-10T22:20:57.924Z,9.10
2019-06-10T22:23:27.797Z,9.37
2019-06-10T22:25:57.791Z,8.37
2019-06-10T22:28:27.912Z,9.47
2019-06-10T22:31:15.205Z,9.47
2019-06-10T22:33:29.984Z,10.60
2019-06-10T22:36:02.189Z,11.23
2019-06-10T22:38:32.806Z,9.80
2019-06-10T22:41:03.349Z,9.17
2019-06-10T22:43:33.280Z,10.43
2019-06-10T22:46:04.166Z,11.00
2019-06-10T22:48:33.938Z,11.20
2019-06-10T22:51:03.720Z,11.53
2019-06-10T22:53:33.608Z,10.90
2019-06-10T22:56:03.327Z,12.57
2019-06-10T22:58:33.229Z,12.07
2019-06-10T23:01:04.225Z,12.30
2019-06-10T23:03:34.200Z,12.70
2019-06-10T23:06:04.528Z,10.23
2019-06-10T23:08:34.465Z,11.53
2019-06-10T23:11:04.670Z,10.83
2019-06-10T23:13:34.574Z,12.97
2019-06-10T23:16:04.474Z,11.93
2019-06-10T23:18:34.165Z,11.93
2019-06-10T23:21:04.645Z,12.57
2019-06-10T23:23:34.377Z,11.97
2019-06-10T23:26:04.143Z,13.30
2019-06-10T23:28:34.103Z,12.97
2019-06-10T23:31:05.294Z,12.53
2019-06-10T23:33:35.628Z,14.23
2019-06-10T23:36:05.355Z,14.73
2019-06-10T23:38:35.112Z,12.83
2019-06-10T23:41:05.024Z,12.57
2019-06-10T23:43:34.738Z,13.83
2019-06-10T23:46:04.619Z,13.80
2019-06-10T23:48:34.451Z,14.90
2019-06-10T23:51:05.182Z,13.50
2019-06-10T23:53:35.809Z,18.80
2019-06-10T23:56:06.089Z,11.50
2019-06-10T23:58:36.050Z,14.17
